Slough, United Kingdom

4:10 AM BST on August 28, 2015 (GMT +0100)
Langley Weather Station | | Change Station
CLOSE
Current Station
Personal Weather Station
Location: Langley , Slough, BERKSHIRE. U.K.
Elevation: 85 ft
Nearby Weather Stations

Elev 85 ft 51.50 °N, 0.54 °W | Updated 5 hours ago

Clear
Clear
57.9 °F
Feels Like 57.9 °F
N
0.4
Wind Variable Wind from SW
Gusts 2.3 mph

Today
High -- | Low -- °F
--% Chance of Precip.
Yesterday
High -- | Low -- °F
Precip. -- in
6:07 AM 7:58 PM
Waxing Gibbous, 96% visible
Pressure 29.92 in
Visibility -9999.0 miles
Clouds
Dew Point 54.4 °F
Humidity 88%
Rainfall in
Snow Depth Not available.
UV 0.0 out of 12
Pollen Not available.
Air Quality Not available.
Flu Activity Not available.
METAR EGLL 280250Z 25005KT CAVOK 12/11 Q1013 NOSIG
Pressure 29.92 in
Visibility -9999.0 miles
Clouds
Dew Point 54.4 °F
Humidity 88%
Rainfall in
Snow Depth Not available.
UV 0.0 out of 12
Pollen Not available.
Air Quality Not available.
Flu Activity Not available.
METAR EGLL 280250Z 25005KT CAVOK 12/11 Q1013 NOSIG

10-Day Weather Forecast

×

Almanac

Astronomy

Aug. 28, 2015 Rise Set
Actual Time
Civil Twilight
Nautical Twilight
Astronomical Twilight
Moon
Length of Visible Light
Length of Day
Tomorrow will be .
, % of the Moon is Illuminated

Today's Extremes

Country Highs Country Lows

Community

WunderPhotos

Upload Photos

1,850,312 photos uploaded!

WunderBlogs® & News

Nearby

Air Quality

  Air Quality AQ Index Pollutant
Not available.

Snow Depth

Station Depth Elevation

Earthquake Activity

City Distance Mag. Time & Date
Minimum magnitude displayed is 2.5.

Coastal Water Temperatures

Place Temperature

Stations

Nearby Weather Stations

Station Location Temp. Windchill Dew Point Humidity Wind Precip. Elev Updated Type